OIYB weather

Bafgh Airport
Bafgh, Yazd Province, Iran

Public forecast

Using degrees Celsius for public forecast. Weather courtesy of forecast.io.

Closest aviation weather report (METAR) to Bafgh Airport

Closest report is Shahid Sadooghi Airport, 68.6 nm (127.1 km) WNW. Retrieved 2020/06/02 19:00 UTC (2 hours ago):

OIYY 021900Z 31006KT 9999 FEW100 32/M00 Q1014

Closest aviation forecast (TAF) to Bafgh Airport

Forecast is more than 12 hours old.

Closest forecast is Shahid Sadooghi Airport, 68.6 nm (127.1 km) WNW. Retrieved 2019/01/08 12:54 UTC (1 year ago):

TAF OIYY 081110Z 0812/0903 26004KT 7000 FEW040 BKN100